Terminal Aerodrome Forecast
Issued by NWS

Home | Current Version | Previous Version | Text Only | Print | Product List | Glossary On
Versions: 1 2 3 4 5 6 7 8 9 10 11 12 13 14 15 16 17 18
000
FTUS43 KOAX 271120
TAFCDR
TAF
KCDR 271120Z 2712/2812 VRB03KT P6SM OVC028
     FM271500 32008KT P6SM BKN050
     FM271800 35009KT P6SM -SHRA BKN050
     FM272200 33008KT P6SM BKN100=

USA.gov is the U.S. government's official web portal to all federal, state and local government web resources and services.